Time;durP1;ratioP1;P1;durP2;ratioP2;P2;SDS_P1;SDS_P2;PMS_P1;PMS_P2;Temp;Humidity;BMP_temperature;BMP_pressure;BME280_temperature;BME280_humidity;BME280_pressure;Samples;Min_cycle;Max_cycle;Signal;HPM_P1;HPM_P2
2023/12/30 00:05:03;;;;;;;20.67;2.33;;;8.40;99.90;;;;;;10464294;28;20052;-69
2023/12/30 00:10:05;;;;;;;10.10;1.73;;;8.40;99.90;;;;;;10465515;28;20052;-70
2023/12/30 00:15:10;;;;;;;17.42;2.03;;;8.30;99.90;;;;;;10464865;28;20117;-71
2023/12/30 00:20:12;;;;;;;9.32;2.03;;;8.40;99.90;;;;;;10464703;28;20533;-69
2023/12/30 00:25:16;;;;;;;13.33;2.30;;;8.40;99.90;;;;;;10472789;28;20060;-70
2023/12/30 00:30:19;;;;;;;15.20;2.40;;;8.30;99.90;;;;;;10473113;28;20055;-70
2023/12/30 00:35:22;;;;;;;17.20;2.35;;;8.40;99.90;;;;;;10469933;28;20122;-71
2023/12/30 00:40:24;;;;;;;16.35;2.28;;;8.30;99.90;;;;;;10468822;28;20052;-70
2023/12/30 00:45:28;;;;;;;18.77;2.03;;;8.30;99.90;;;;;;10453697;28;20079;-71
2023/12/30 00:50:31;;;;;;;11.70;2.40;;;8.30;99.90;;;;;;10482127;28;20210;-69
2023/12/30 00:55:33;;;;;;;11.67;2.23;;;8.30;99.90;;;;;;10476369;28;20049;-71
2023/12/30 01:00:37;;;;;;;23.03;3.57;;;8.40;99.90;;;;;;10473690;28;20052;-71
2023/12/30 01:05:39;;;;;;;6.20;1.65;;;8.40;99.90;;;;;;10467366;28;20334;-69
2023/12/30 01:10:42;;;;;;;14.88;2.97;;;8.30;99.90;;;;;;10473948;28;20052;-70
2023/12/30 01:15:46;;;;;;;10.80;2.20;;;8.40;99.90;;;;;;10472602;28;20060;-70
2023/12/30 01:20:48;;;;;;;27.85;3.65;;;8.30;99.90;;;;;;10473850;28;20048;-69
2023/12/30 01:25:50;;;;;;;16.63;3.13;;;8.20;99.90;;;;;;10476858;28;20049;-71
2023/12/30 01:30:53;;;;;;;14.38;2.35;;;8.40;99.90;;;;;;10459226;28;20167;-70
2023/12/30 01:35:56;;;;;;;10.52;2.35;;;8.20;99.90;;;;;;10459589;28;20100;-70
2023/12/30 01:40:58;;;;;;;12.75;2.63;;;8.40;99.90;;;;;;10469078;28;20466;-69
2023/12/30 01:46:05;;;;;;;13.05;2.78;;;8.20;99.90;;;;;;10475687;28;20665;-71
2023/12/30 01:51:08;;;;;;;15.48;3.08;;;8.20;99.90;;;;;;10481508;28;20048;-70
2023/12/30 01:56:10;;;;;;;5.80;1.75;;;8.10;99.90;;;;;;10481275;28;20052;-71
2023/12/30 02:01:17;;;;;;;13.90;2.50;;;8.10;99.90;;;;;;10469879;28;20148;-69
2023/12/30 02:06:20;;;;;;;9.57;1.50;;;8.30;99.90;;;;;;10478117;28;20345;-72
2023/12/30 02:11:22;;;;;;;13.70;1.55;;;8.10;99.90;;;;;;10471560;28;20075;-72
2023/12/30 02:16:26;;;;;;;15.70;2.93;;;8.30;99.90;;;;;;10473245;28;20472;-71
2023/12/30 02:21:28;;;;;;;15.40;2.38;;;8.20;99.90;;;;;;10477070;28;20052;-72
2023/12/30 02:26:32;;;;;;;16.65;2.28;;;8.30;99.90;;;;;;10481884;28;20071;-71
2023/12/30 02:31:36;;;;;;;13.20;2.60;;;8.30;99.90;;;;;;10470162;28;20044;-70
2023/12/30 02:36:38;;;;;;;22.63;2.95;;;8.30;99.90;;;;;;10479343;28;20155;-71
2023/12/30 02:41:45;;;;;;;16.45;1.75;;;8.30;99.90;;;;;;10474162;28;20088;-71
2023/12/30 02:46:47;;;;;;;13.32;2.00;;;8.40;99.90;;;;;;10481671;28;20551;-71
2023/12/30 02:51:49;;;;;;;13.43;2.50;;;8.30;99.90;;;;;;10477643;28;20056;-72
2023/12/30 02:56:53;;;;;;;16.10;2.53;;;8.30;99.90;;;;;;10471559;28;20455;-72
2023/12/30 03:01:55;;;;;;;13.90;2.35;;;8.20;99.90;;;;;;10467104;28;20130;-72
2023/12/30 03:06:57;;;;;;;17.90;2.50;;;8.20;99.90;;;;;;10466610;28;20056;-73
2023/12/30 03:12:02;;;;;;;16.55;2.55;;;8.20;99.90;;;;;;10468923;28;20056;-72
2023/12/30 03:17:04;;;;;;;16.92;2.63;;;8.30;99.90;;;;;;10485991;28;20113;-72
2023/12/30 03:22:06;;;;;;;8.00;1.70;;;8.30;99.90;;;;;;10482075;28;20053;-72
2023/12/30 03:27:09;;;;;;;10.48;1.65;;;8.20;99.90;;;;;;10459477;28;20114;-71
2023/12/30 03:32:11;;;;;;;11.77;1.60;;;8.20;99.90;;;;;;10463443;28;20047;-70
2023/12/30 03:37:14;;;;;;;10.25;1.65;;;8.20;99.90;;;;;;10477040;28;20049;-71
2023/12/30 03:42:17;;;;;;;13.17;1.90;;;8.30;99.90;;;;;;10473982;28;20457;-71
2023/12/30 03:47:19;;;;;;;14.15;2.13;;;8.30;99.90;;;;;;10465305;28;20045;-70
2023/12/30 03:52:21;;;;;;;6.97;1.83;;;8.20;99.90;;;;;;10470174;28;20048;-72
2023/12/30 04:15:33;;;;;;;8.68;1.60;;;8.10;99.90;;;;;;10623529;27;20130;-71
2023/12/30 04:20:35;;;;;;;19.02;2.30;;;8.20;99.90;;;;;;10580388;27;20126;-71
2023/12/30 04:25:37;;;;;;;15.43;2.63;;;8.10;99.90;;;;;;10602725;27;20052;-71
2023/12/30 04:30:41;;;;;;;10.73;1.60;;;8.10;99.90;;;;;;10600082;27;20075;-71
2023/12/30 04:35:42;;;;;;;;;;;8.10;99.90;;;;;;10603465;27;20051;-71
2023/12/30 04:40:45;;;;;;;18.48;3.10;;;8.10;99.90;;;;;;10586085;27;19928;-71
2023/12/30 04:45:48;;;;;;;13.70;2.53;;;8.00;99.90;;;;;;10616680;27;20061;-71
2023/12/30 04:50:50;;;;;;;15.32;2.42;;;8.10;99.90;;;;;;10598709;27;20105;-71
2023/12/30 04:55:52;;;;;;;23.52;2.35;;;8.10;99.90;;;;;;10607838;27;20047;-70
2023/12/30 05:00:56;;;;;;;16.20;2.63;;;8.20;99.90;;;;;;10590005;27;20048;-70
2023/12/30 05:05:58;;;;;;;9.82;1.67;;;8.20;99.90;;;;;;10592090;27;20126;-71
2023/12/30 05:11:06;;;;;;;17.27;2.50;;;8.10;99.90;;;;;;10611244;27;20051;-70
2023/12/30 05:16:10;;;;;;;16.85;1.80;;;8.00;99.90;;;;;;10590637;27;20051;-70
2023/12/30 05:21:14;;;;;;;14.40;2.13;;;8.10;99.90;;;;;;10608195;27;20051;-70
2023/12/30 05:26:16;;;;;;;11.85;1.52;;;8.30;99.90;;;;;;10576381;27;20047;-70
2023/12/30 05:31:19;;;;;;;6.90;1.17;;;8.10;99.90;;;;;;10580118;27;20047;-69
2023/12/30 05:36:21;;;;;;;14.32;2.20;;;8.00;99.90;;;;;;10557281;27;20054;-70
2023/12/30 05:41:24;;;;;;;6.63;2.08;;;8.10;99.90;;;;;;10545985;28;20076;-70
2023/12/30 05:46:28;;;;;;;13.55;2.72;;;8.20;99.90;;;;;;10561180;28;20128;-70
2023/12/30 05:51:31;;;;;;;11.98;2.38;;;8.20;99.90;;;;;;10565961;27;20139;-74
2023/12/30 05:56:32;;;;;;;12.30;1.98;;;8.10;99.90;;;;;;10560518;28;20052;-71
2023/12/30 06:01:44;;;;;;;12.25;1.92;;;8.10;99.90;;;;;;10579552;27;20773;-72
2023/12/30 06:06:46;;;;;;;12.35;2.65;;;8.20;99.90;;;;;;10560318;27;20047;-70
2023/12/30 06:11:49;;;;;;;9.05;1.42;;;8.30;99.90;;;;;;10567022;28;20133;-70
2023/12/30 06:16:53;;;;;;;20.05;2.53;;;8.30;99.90;;;;;;10568129;27;20100;-70
2023/12/30 06:21:55;;;;;;;18.15;1.90;;;8.40;99.90;;;;;;10561064;28;20079;-71
2023/12/30 06:26:57;;;;;;;6.80;1.40;;;8.40;99.90;;;;;;10561291;28;20054;-71
2023/12/30 06:32:00;;;;;;;12.75;2.03;;;8.50;99.90;;;;;;10566240;27;20043;-72
2023/12/30 06:37:02;;;;;;;7.32;1.63;;;8.50;99.90;;;;;;10558781;27;20048;-70
2023/12/30 06:42:05;;;;;;;10.57;1.40;;;8.60;99.90;;;;;;10571318;28;20043;-70
2023/12/30 06:47:09;;;;;;;10.40;1.42;;;8.60;99.90;;;;;;10568475;28;20510;-70
2023/12/30 06:52:11;;;;;;;14.32;3.67;;;8.50;99.90;;;;;;10563883;28;20827;-69
2023/12/30 06:57:13;;;;;;;10.90;1.63;;;8.50;99.90;;;;;;10565074;27;20422;-70
2023/12/30 07:02:16;;;;;;;9.57;1.60;;;8.40;99.90;;;;;;10556803;28;20058;-70
2023/12/30 07:07:18;;;;;;;12.23;1.85;;;8.20;99.90;;;;;;10560411;27;20055;-71
2023/12/30 07:12:20;;;;;;;16.10;4.35;;;8.50;99.90;;;;;;10546158;28;20634;-71
2023/12/30 07:17:25;;;;;;;20.33;2.22;;;8.30;99.90;;;;;;10564369;27;20044;-70
2023/12/30 07:22:27;;;;;;;20.52;2.78;;;8.20;99.90;;;;;;10574183;27;20047;-70
2023/12/30 07:27:29;;;;;;;16.23;1.85;;;8.30;99.90;;;;;;10557779;27;20050;-70
2023/12/30 07:32:33;;;;;;;16.45;2.58;;;8.20;99.90;;;;;;10550055;27;20043;-69
2023/12/30 07:37:35;;;;;;;12.15;2.35;;;8.30;99.90;;;;;;10554799;27;20567;-70
2023/12/30 07:42:37;;;;;;;16.13;2.20;;;8.40;99.90;;;;;;10542498;28;20047;-71
2023/12/30 07:47:41;;;;;;;13.68;2.88;;;8.50;99.90;;;;;;10561098;27;20051;-72
2023/12/30 07:52:44;;;;;;;17.85;3.58;;;8.50;99.90;;;;;;10563009;27;20055;-71
2023/12/30 07:57:46;;;;;;;11.13;1.77;;;8.40;99.90;;;;;;10530643;27;20533;-71
2023/12/30 08:02:49;;;;;;;24.00;2.33;;;8.70;99.90;;;;;;10541884;28;20054;-71
2023/12/30 08:07:51;;;;;;;9.52;1.80;;;8.90;99.90;;;;;;10563556;28;20056;-70
2023/12/30 08:12:53;;;;;;;10.20;1.77;;;8.70;99.90;;;;;;10563813;28;20521;-70
2023/12/30 08:17:57;;;;;;;18.55;1.88;;;8.70;99.90;;;;;;10561350;28;20074;-71
2023/12/30 08:22:59;;;;;;;10.40;1.83;;;8.70;99.90;;;;;;10561199;28;20047;-70
2023/12/30 08:28:01;;;;;;;13.68;2.50;;;8.70;99.90;;;;;;10565397;28;20133;-70
2023/12/30 08:33:07;;;;;;;7.03;1.40;;;8.90;99.90;;;;;;10566641;28;20040;-71
2023/12/30 08:38:09;;;;;;;19.02;1.85;;;8.90;99.90;;;;;;10551204;28;20128;-72
2023/12/30 08:43:12;;;;;;;17.00;2.40;;;9.80;99.90;;;;;;10552809;28;20063;-72
2023/12/30 08:48:16;;;;;;;12.98;2.70;;;10.00;99.90;;;;;;10524804;28;20132;-72
2023/12/30 08:53:24;;;;;;;21.17;2.55;;;10.40;99.90;;;;;;10549724;28;20051;-72
2023/12/30 08:58:26;;;;;;;16.27;2.30;;;9.90;99.90;;;;;;10546830;28;20059;-72
2023/12/30 09:03:30;;;;;;;10.27;2.83;;;10.90;99.90;;;;;;10563321;27;20056;-71
2023/12/30 09:08:32;;;;;;;17.80;1.73;;;12.10;99.90;;;;;;10536772;27;20477;-71
2023/12/30 09:13:35;;;;;;;14.77;2.33;;;10.80;99.90;;;;;;10554029;28;20507;-71
2023/12/30 09:18:38;;;;;;;17.40;2.27;;;10.80;99.90;;;;;;10568261;27;20418;-71
2023/12/30 09:23:40;;;;;;;21.92;3.72;;;9.90;99.90;;;;;;10547854;28;20047;-71
2023/12/30 09:28:42;;;;;;;21.33;1.83;;;9.60;99.90;;;;;;10556205;28;20404;-71
2023/12/30 09:33:48;;;;;;;17.90;2.65;;;9.30;99.90;;;;;;10560483;28;20039;-71
2023/12/30 09:38:51;;;;;;;27.45;2.60;;;9.20;99.90;;;;;;10560415;27;20581;-69
2023/12/30 09:43:54;;;;;;;19.02;3.47;;;9.20;99.90;;;;;;10562106;28;20048;-69
2023/12/30 09:48:58;;;;;;;;;;;9.00;99.90;;;;;;10576127;27;20097;-70
2023/12/30 09:54:00;;;;;;;14.05;1.75;;;9.00;99.90;;;;;;10574874;28;19924;-73
2023/12/30 09:59:03;;;;;;;21.20;2.50;;;9.00;99.90;;;;;;10575697;28;20051;-71
2023/12/30 10:04:06;;;;;;;12.70;2.92;;;9.60;99.90;;;;;;10567266;28;20719;-71
2023/12/30 10:09:09;;;;;;;24.13;3.22;;;9.20;99.90;;;;;;10559994;28;20051;-70
2023/12/30 10:14:11;;;;;;;;;;;9.50;99.90;;;;;;10567952;28;20669;-71
2023/12/30 10:19:16;;;;;;;19.42;3.85;;;10.00;99.90;;;;;;10556780;28;20407;-70
2023/12/30 10:24:18;;;;;;;16.95;2.55;;;10.40;99.90;;;;;;10556303;28;20151;-70
2023/12/30 10:29:20;;;;;;;28.85;2.85;;;10.40;99.90;;;;;;10530331;28;20468;-72
2023/12/30 10:34:24;;;;;;;16.40;2.17;;;10.00;99.90;;;;;;10560846;28;20046;-71
2023/12/30 10:39:28;;;;;;;20.30;3.05;;;10.90;99.90;;;;;;10562736;28;20845;-71
2023/12/30 10:44:30;;;;;;;18.73;2.72;;;10.40;99.90;;;;;;10531254;27;20086;-71
2023/12/30 10:49:34;;;;;;;21.65;4.00;;;10.00;99.90;;;;;;10541933;28;20519;-71
2023/12/30 10:54:42;;;;;;;17.70;2.63;;;10.80;99.90;;;;;;10561625;28;20250;-71
2023/12/30 10:59:47;;;;;;;23.90;3.33;;;10.40;99.90;;;;;;10567433;27;20063;-71
2023/12/30 11:04:53;;;;;;;22.13;3.75;;;10.30;99.90;;;;;;10554518;27;20051;-71
2023/12/30 11:09:57;;;;;;;19.52;3.35;;;10.10;99.90;;;;;;10543868;28;20051;-70
2023/12/30 11:15:01;;;;;;;26.70;3.85;;;10.40;99.90;;;;;;10556750;27;20055;-71
2023/12/30 11:20:24;;;;;;;28.70;3.92;;;10.60;99.90;;;;;;10567100;28;20518;-72
2023/12/30 11:25:43;;;;;;;19.60;3.33;;;10.80;99.90;;;;;;10552799;27;20052;-70
2023/12/30 11:30:51;;;;;;;23.70;4.07;;;10.80;99.90;;;;;;10558141;27;20506;-72
2023/12/30 11:35:55;;;;;;;20.02;4.38;;;10.20;99.90;;;;;;10561143;27;20073;-71
2023/12/30 11:40:58;;;;;;;30.42;5.28;;;10.20;99.90;;;;;;10542170;28;20077;-73
2023/12/30 11:46:03;;;;;;;24.08;5.35;;;10.30;99.90;;;;;;10566182;27;20121;-71
2023/12/30 11:51:07;;;;;;;28.38;8.18;;;10.60;99.90;;;;;;10569223;28;20047;-71
2023/12/30 11:56:09;;;;;;;21.70;4.97;;;11.60;99.90;;;;;;10568034;28;20047;-71
2023/12/30 12:01:11;;;;;;;18.57;4.63;;;11.80;99.90;;;;;;10557683;27;20051;-71
2023/12/30 12:06:15;;;;;;;38.17;10.38;;;12.10;99.90;;;;;;10569726;28;20048;-72
2023/12/30 12:11:18;;;;;;;23.25;8.13;;;11.80;99.90;;;;;;10551318;28;20138;-71
2023/12/30 12:16:27;;;;;;;27.57;8.93;;;12.30;99.90;;;;;;10560488;28;20076;-71
2023/12/30 12:21:35;;;;;;;20.20;7.22;;;12.10;99.90;;;;;;10567463;28;20555;-71
2023/12/30 12:26:39;;;;;;;28.73;7.65;;;11.80;99.90;;;;;;10565934;28;20051;-71
2023/12/30 12:31:45;;;;;;;21.17;7.30;;;12.80;99.90;;;;;;10567016;28;20056;-71
2023/12/30 12:36:48;;;;;;;25.63;6.22;;;12.50;99.90;;;;;;10557587;28;20419;-71
2023/12/30 12:41:53;;;;;;;20.33;6.05;;;12.90;99.90;;;;;;10583378;27;20060;-72
2023/12/30 12:46:56;;;;;;;26.10;5.43;;;12.80;99.90;;;;;;10574715;27;20063;-71
2023/12/30 12:52:04;;;;;;;18.77;5.53;;;12.50;99.90;;;;;;10550544;28;20052;-71
2023/12/30 12:57:06;;;;;;;19.45;4.13;;;12.50;99.90;;;;;;10557526;27;20055;-72
2023/12/30 13:02:08;;;;;;;16.52;3.97;;;12.30;99.90;;;;;;10565080;27;20040;-71
2023/12/30 13:07:12;;;;;;;20.63;4.80;;;12.80;99.90;;;;;;10576581;27;20104;-71
2023/12/30 13:12:14;;;;;;;23.75;4.72;;;11.80;99.90;;;;;;10562448;28;20444;-71
2023/12/30 13:17:16;;;;;;;15.63;4.63;;;12.40;99.90;;;;;;10575232;27;20255;-71
2023/12/30 13:22:20;;;;;;;20.03;4.70;;;13.00;99.90;;;;;;10551035;28;20051;-71
2023/12/30 13:27:24;;;;;;;18.05;4.07;;;12.40;99.90;;;;;;10567144;28;20454;-70
2023/12/30 13:32:28;;;;;;;;;;;13.00;99.90;;;;;;10562138;28;20047;-69
2023/12/30 13:37:32;;;;;;;13.93;3.47;;;12.70;99.90;;;;;;10547449;28;19934;-72
2023/12/30 13:42:34;;;;;;;18.58;3.90;;;12.50;99.90;;;;;;10560954;28;20694;-71
2023/12/30 13:48:14;;;;;;;19.55;3.10;;;13.10;99.90;;;;;;10576157;27;20051;-71
2023/12/30 13:53:04;;;;;;;12.77;3.70;;;13.60;99.90;;;;;;10568193;27;20048;-71
2023/12/30 13:58:06;;;;;;;17.77;3.45;;;13.40;99.90;;;;;;10569847;28;20543;-73
2023/12/30 14:03:09;;;;;;;17.60;3.87;;;14.30;99.90;;;;;;10547468;27;20040;-72
2023/12/30 14:08:18;;;;;;;12.57;3.33;;;14.10;99.90;;;;;;10552127;28;20105;-72
2023/12/30 14:13:22;;;;;;;14.73;3.15;;;14.40;99.90;;;;;;10557968;28;20051;-70
2023/12/30 14:18:24;;;;;;;11.40;3.53;;;14.80;99.90;;;;;;10557981;28;20503;-72
2023/12/30 14:23:31;;;;;;;12.53;3.33;;;14.30;99.90;;;;;;10547796;27;20100;-73
2023/12/30 14:28:33;;;;;;;19.45;3.33;;;14.80;99.90;;;;;;10560293;28;20078;-71
2023/12/30 14:33:35;;;;;;;13.83;3.40;;;14.50;99.90;;;;;;10560348;27;20066;-72
2023/12/30 14:38:40;;;;;;;9.50;3.20;;;14.50;99.90;;;;;;10564135;27;20415;-71
2023/12/30 14:43:49;;;;;;;14.40;3.63;;;14.00;99.90;;;;;;10568250;27;20060;-71
2023/12/30 14:48:51;;;;;;;21.90;4.55;;;13.70;99.90;;;;;;10569938;27;20116;-72
2023/12/30 14:53:54;;;;;;;23.50;3.90;;;13.70;99.90;;;;;;10571455;27;20044;-71
2023/12/30 14:58:56;;;;;;;11.05;2.63;;;13.90;99.90;;;;;;10570133;27;20130;-71
2023/12/30 15:04:01;;;;;;;13.90;2.83;;;13.50;99.90;;;;;;10561886;27;20044;-72
2023/12/30 15:09:09;;;;;;;10.55;2.78;;;14.40;99.90;;;;;;10569124;27;20567;-73
2023/12/30 15:14:13;;;;;;;14.40;4.82;;;13.90;99.90;;;;;;10568647;27;21236;-72
2023/12/30 15:19:15;;;;;;;9.35;2.40;;;13.80;99.90;;;;;;10560741;27;20674;-71
2023/12/30 15:24:18;;;;;;;12.50;1.83;;;14.00;99.90;;;;;;10558394;27;20493;-72
2023/12/30 15:29:20;;;;;;;13.00;2.83;;;14.30;99.90;;;;;;10553515;27;20105;-72
2023/12/30 15:34:23;;;;;;;10.50;1.97;;;14.00;99.90;;;;;;10568544;28;20134;-71
2023/12/30 15:39:27;;;;;;;9.90;2.15;;;13.40;99.90;;;;;;10565907;28;20109;-72
2023/12/30 15:44:32;;;;;;;10.30;2.45;;;14.30;99.90;;;;;;10551678;28;20134;-72
2023/12/30 15:49:34;;;;;;;5.93;2.17;;;14.60;99.90;;;;;;10559159;27;20065;-76
2023/12/30 15:54:37;;;;;;;8.63;2.20;;;14.60;99.90;;;;;;10573079;28;20047;-72
2023/12/30 15:59:39;;;;;;;7.68;2.10;;;14.70;99.90;;;;;;10562576;28;20059;-72
2023/12/30 16:04:42;;;;;;;9.47;1.87;;;14.60;99.90;;;;;;10547916;28;20143;-72
2023/12/30 16:09:48;;;;;;;9.52;2.35;;;14.90;99.90;;;;;;10538942;28;20138;-72
2023/12/30 16:14:50;;;;;;;10.32;2.67;;;14.20;99.90;;;;;;10567742;28;20051;-71
2023/12/30 16:19:54;;;;;;;11.50;2.92;;;14.80;99.90;;;;;;10547889;28;20083;-72
2023/12/30 16:24:58;;;;;;;6.40;1.92;;;14.80;99.90;;;;;;10554930;28;20487;-71
2023/12/30 16:30:00;;;;;;;10.30;2.65;;;14.80;99.90;;;;;;10558771;28;20060;-72
2023/12/30 16:35:04;;;;;;;7.20;1.93;;;14.90;99.90;;;;;;10551562;28;20456;-71
2023/12/30 16:40:10;;;;;;;9.00;1.90;;;15.40;99.90;;;;;;10554184;28;20125;-71
2023/12/30 16:45:13;;;;;;;6.65;2.10;;;15.30;99.90;;;;;;10560434;28;20036;-70
2023/12/30 16:50:15;;;;;;;7.32;1.65;;;15.20;99.90;;;;;;10546285;28;20055;-71
2023/12/30 16:55:20;;;;;;;6.18;1.70;;;15.20;99.90;;;;;;10563064;28;21411;-71
2023/12/30 17:00:22;;;;;;;5.47;1.75;;;15.40;99.90;;;;;;10547756;28;20056;-72
2023/12/30 17:05:25;;;;;;;10.43;2.77;;;15.10;99.90;;;;;;10553037;28;20040;-71
2023/12/30 17:10:28;;;;;;;9.20;2.30;;;15.30;99.90;;;;;;10539424;28;20450;-71
2023/12/30 17:15:30;;;;;;;4.18;1.88;;;15.40;99.90;;;;;;10560317;28;20058;-71
2023/12/30 17:20:32;;;;;;;10.33;2.57;;;15.20;99.90;;;;;;10560924;28;20063;-71
2023/12/30 17:25:36;;;;;;;10.33;2.30;;;14.50;99.90;;;;;;10567452;28;20143;-70
2023/12/30 17:30:38;;;;;;;5.68;1.98;;;14.90;99.90;;;;;;10554621;28;20051;-71
2023/12/30 17:35:41;;;;;;;8.65;1.77;;;15.40;99.90;;;;;;10552374;28;20051;-71
2023/12/30 17:40:44;;;;;;;4.93;1.73;;;15.40;99.90;;;;;;10575523;28;20063;-71
2023/12/30 17:45:46;;;;;;;4.78;1.50;;;15.20;99.90;;;;;;10555327;28;20521;-72
2023/12/30 17:50:49;;;;;;;8.18;1.60;;;15.10;99.90;;;;;;10539185;28;20109;-71
2023/12/30 17:55:53;;;;;;;9.07;1.83;;;15.10;99.90;;;;;;10545061;28;20495;-71
2023/12/30 18:00:55;;;;;;;6.68;2.17;;;14.50;99.90;;;;;;10540078;28;20054;-70
2023/12/30 18:05:57;;;;;;;9.10;1.83;;;14.70;99.90;;;;;;10554342;28;20807;-71
2023/12/30 18:11:00;;;;;;;4.18;1.50;;;15.10;99.90;;;;;;10548836;27;20477;-71
2023/12/30 18:16:03;;;;;;;5.43;1.65;;;15.30;99.90;;;;;;10567278;28;20043;-71
2023/12/30 18:21:05;;;;;;;3.60;1.63;;;14.80;99.90;;;;;;10557723;27;20043;-71
2023/12/30 18:26:12;;;;;;;5.30;1.88;;;14.90;99.90;;;;;;10559183;27;20058;-71
2023/12/30 18:31:15;;;;;;;8.00;2.70;;;15.00;99.90;;;;;;10540258;28;20043;-70
2023/12/30 18:36:18;;;;;;;5.63;1.77;;;14.90;99.90;;;;;;10538944;28;20055;-70
2023/12/30 18:41:21;;;;;;;6.32;1.65;;;14.90;99.90;;;;;;10548402;28;20099;-71
2023/12/30 18:46:26;;;;;;;4.03;1.20;;;15.10;99.90;;;;;;10573693;28;20055;-71
2023/12/30 18:51:29;;;;;;;5.50;1.65;;;15.30;99.90;;;;;;10574584;27;20517;-72
2023/12/30 18:56:33;;;;;;;4.00;1.50;;;15.00;99.90;;;;;;10560738;28;20534;-71
2023/12/30 19:01:37;;;;;;;8.80;2.47;;;15.00;99.90;;;;;;10557564;27;20141;-71
2023/12/30 19:06:39;;;;;;;3.22;1.70;;;14.90;99.90;;;;;;10560769;27;20761;-72
2023/12/30 19:11:43;;;;;;;5.80;2.35;;;15.20;99.90;;;;;;10571023;28;20056;-71
2023/12/30 19:16:47;;;;;;;6.97;2.47;;;14.90;99.90;;;;;;10567591;28;20055;-71
2023/12/30 19:21:49;;;;;;;8.27;2.65;;;15.00;99.90;;;;;;10570221;28;20047;-71
2023/12/30 19:26:57;;;;;;;4.33;1.83;;;15.10;99.90;;;;;;10571883;28;20043;-72
2023/12/30 19:31:59;;;;;;;4.78;2.00;;;15.50;99.90;;;;;;10570847;27;20062;-71
2023/12/30 19:37:01;;;;;;;4.33;1.80;;;15.20;99.90;;;;;;10565256;27;20039;-71
2023/12/30 19:42:05;;;;;;;4.50;2.00;;;15.50;99.90;;;;;;10545764;28;20051;-70
2023/12/30 19:47:09;;;;;;;3.90;1.70;;;15.30;99.90;;;;;;10552822;28;20093;-71
2023/12/30 19:52:12;;;;;;;4.00;1.70;;;15.20;99.90;;;;;;10565970;27;20066;-71
2023/12/30 19:57:16;;;;;;;8.00;2.75;;;15.40;99.90;;;;;;10570450;28;20770;-72
2023/12/30 20:02:19;;;;;;;5.05;2.80;;;15.30;99.90;;;;;;10564321;27;20071;-71
2023/12/30 20:07:22;;;;;;;5.45;1.63;;;15.40;99.90;;;;;;10558253;27;20521;-71
2023/12/30 20:12:25;;;;;;;;;;;15.30;99.90;;;;;;10560695;28;20051;-72
2023/12/30 20:17:27;;;;;;;;;;;15.10;99.90;;;;;;10568613;28;20007;-71
2023/12/30 20:22:29;;;;;;;5.00;2.63;;;15.40;99.90;;;;;;10567946;28;19920;-71
2023/12/30 20:27:32;;;;;;;4.90;2.20;;;15.00;99.90;;;;;;10561852;28;20039;-71
2023/12/30 20:32:35;;;;;;;2.22;1.27;;;14.80;99.90;;;;;;10550753;28;20040;-71
2023/12/30 20:37:38;;;;;;;;;;;15.20;99.90;;;;;;10568071;28;20097;-71
2023/12/30 20:42:41;;;;;;;1.80;1.27;;;15.30;99.90;;;;;;10566390;28;19923;-72
2023/12/30 20:47:43;;;;;;;3.13;1.45;;;15.40;99.90;;;;;;10566524;28;20055;-71
2023/12/30 20:52:45;;;;;;;3.40;1.57;;;15.70;99.90;;;;;;10568678;28;20562;-71
2023/12/30 20:57:49;;;;;;;8.47;2.07;;;15.70;99.90;;;;;;10555735;28;20115;-70
2023/12/30 21:02:51;;;;;;;3.20;1.80;;;15.20;99.90;;;;;;10574878;27;20481;-70
2023/12/30 21:07:53;;;;;;;3.07;1.73;;;15.20;99.90;;;;;;10572244;27;20172;-71
2023/12/30 21:12:58;;;;;;;2.40;1.47;;;15.40;99.90;;;;;;10577557;28;20481;-72
2023/12/30 21:18:00;;;;;;;3.08;1.42;;;15.60;99.90;;;;;;10559026;28;20040;-71
2023/12/30 21:23:02;;;;;;;4.63;1.60;;;15.60;99.90;;;;;;10577533;27;20444;-71
2023/12/30 21:28:07;;;;;;;2.93;1.70;;;15.40;99.90;;;;;;10572338;28;20051;-71
2023/12/30 21:33:09;;;;;;;3.33;1.40;;;15.40;99.90;;;;;;10574295;28;20545;-71
2023/12/30 21:38:11;;;;;;;3.63;1.47;;;15.50;99.90;;;;;;10567751;28;20436;-70
2023/12/30 21:43:16;;;;;;;2.77;1.27;;;15.60;99.90;;;;;;10570948;27;20060;-70
2023/12/30 21:48:18;;;;;;;1.58;1.42;;;15.70;99.90;;;;;;10559689;27;21221;-71
2023/12/30 21:53:20;;;;;;;1.93;1.10;;;15.50;99.90;;;;;;10561296;28;20055;-72
2023/12/30 21:58:24;;;;;;;1.57;1.43;;;15.50;99.90;;;;;;10576112;27;20444;-71
2023/12/30 22:03:26;;;;;;;4.68;1.83;;;15.50;99.90;;;;;;10575531;28;20062;-71
2023/12/30 22:08:28;;;;;;;3.40;1.33;;;15.60;99.90;;;;;;10573334;28;20047;-71
2023/12/30 22:13:32;;;;;;;3.28;1.20;;;15.70;99.90;;;;;;10568048;27;20066;-71
2023/12/30 22:18:39;;;;;;;2.22;1.17;;;15.30;99.90;;;;;;10571981;28;20135;-70
2023/12/30 22:23:42;;;;;;;3.42;1.50;;;15.60;99.90;;;;;;10555413;27;20067;-71
2023/12/30 22:28:45;;;;;;;1.92;1.30;;;15.50;99.90;;;;;;10561300;27;20048;-71
2023/12/30 22:33:48;;;;;;;3.67;1.50;;;15.20;99.90;;;;;;10553882;27;20581;-72
2023/12/30 22:38:51;;;;;;;4.97;1.60;;;15.40;99.90;;;;;;10544533;27;20048;-70
2023/12/30 22:43:54;;;;;;;2.30;1.07;;;15.50;99.90;;;;;;10547486;27;20048;-70
2023/12/30 22:48:57;;;;;;;5.60;1.08;;;15.70;99.90;;;;;;10553010;27;20050;-70
2023/12/30 22:53:59;;;;;;;3.13;1.37;;;15.30;99.90;;;;;;10570483;27;20075;-72
2023/12/30 22:59:02;;;;;;;4.22;0.88;;;15.40;99.90;;;;;;10567933;28;20067;-71
2023/12/30 23:04:04;;;;;;;2.45;1.00;;;15.40;99.90;;;;;;10552970;27;20052;-70
2023/12/30 23:09:06;;;;;;;0.53;0.30;;;15.60;99.90;;;;;;10563998;27;20419;-71
2023/12/30 23:14:10;;;;;;;3.20;0.90;;;15.70;99.90;;;;;;10567799;27;20059;-71
2023/12/30 23:19:12;;;;;;;2.30;0.77;;;15.50;99.90;;;;;;10555270;28;20047;-71
2023/12/30 23:24:15;;;;;;;5.32;0.95;;;15.50;99.90;;;;;;10551128;27;20094;-71
2023/12/30 23:29:19;;;;;;;3.22;1.10;;;15.50;99.90;;;;;;10551915;27;20155;-71
2023/12/30 23:34:21;;;;;;;3.05;1.10;;;15.40;99.90;;;;;;10565290;27;20078;-70
2023/12/30 23:39:24;;;;;;;1.53;0.87;;;15.20;99.90;;;;;;10558339;28;20043;-70
2023/12/30 23:44:29;;;;;;;2.25;0.90;;;15.10;99.90;;;;;;10561962;27;20074;-70
2023/12/30 23:49:31;;;;;;;1.63;0.93;;;15.20;99.90;;;;;;10564660;27;20090;-72
2023/12/30 23:54:33;;;;;;;1.80;0.70;;;15.50;99.90;;;;;;10564094;28;20699;-72
2023/12/30 23:59:38;;;;;;;2.05;0.85;;;15.50;99.90;;;;;;10558510;28;20082;-71
